createdAt,value
2018-05-15T00:00:57.675Z,14.60
2018-05-15T00:04:00.372Z,14.60
2018-05-15T00:07:03.018Z,14.60
2018-05-15T00:10:05.582Z,14.50
2018-05-15T00:13:08.178Z,14.60
2018-05-15T00:16:11.526Z,14.50
2018-05-15T00:19:14.156Z,14.50
2018-05-15T00:22:16.793Z,14.40
2018-05-15T00:25:19.377Z,14.50
2018-05-15T00:28:21.973Z,14.40
2018-05-15T00:31:24.608Z,14.40
2018-05-15T00:34:27.137Z,14.30
2018-05-15T00:37:29.751Z,14.20
2018-05-15T00:40:32.346Z,14.20
2018-05-15T00:43:34.932Z,14.10
2018-05-15T00:46:38.291Z,14.00
2018-05-15T00:49:40.873Z,14.00
2018-05-15T00:52:43.500Z,14.00
2018-05-15T00:55:46.111Z,14.00
2018-05-15T00:58:48.790Z,13.90
2018-05-15T01:01:51.378Z,13.90
2018-05-15T01:04:54.189Z,14.00
2018-05-15T01:07:56.751Z,14.00
2018-05-15T01:10:59.361Z,14.10
2018-05-15T01:14:02.006Z,14.00
2018-05-15T01:17:04.583Z,14.00
2018-05-15T01:20:07.199Z,14.00
2018-05-15T01:23:09.799Z,13.90
2018-05-15T01:26:13.345Z,13.90
2018-05-15T01:29:15.931Z,13.90
2018-05-15T01:32:18.611Z,13.90
2018-05-15T01:35:21.193Z,13.90
2018-05-15T01:38:23.780Z,13.90
2018-05-15T01:41:26.551Z,13.90
2018-05-15T01:44:29.919Z,13.80
2018-05-15T01:47:32.485Z,13.80
2018-05-15T01:50:35.105Z,13.70
2018-05-15T01:53:37.699Z,13.70
2018-05-15T01:56:41.028Z,13.50
2018-05-15T01:59:44.423Z,13.50
2018-05-15T02:02:47.091Z,13.50
2018-05-15T02:05:49.668Z,13.40
2018-05-15T02:08:52.324Z,13.40
2018-05-15T02:11:55.111Z,13.40
2018-05-15T02:14:58.402Z,13.30
2018-05-15T02:18:00.999Z,13.30
2018-05-15T02:21:04.395Z,13.30
2018-05-15T02:24:07.111Z,13.30
2018-05-15T02:27:09.729Z,13.40
2018-05-15T02:30:12.350Z,13.30
2018-05-15T02:33:15.707Z,13.30
2018-05-15T02:36:18.311Z,13.30
2018-05-15T02:39:20.888Z,13.30
2018-05-15T02:42:23.492Z,13.30
2018-05-15T02:45:26.108Z,13.30
2018-05-15T02:48:28.698Z,13.20
2018-05-15T02:51:31.289Z,13.30
2018-05-15T02:54:33.880Z,13.30
2018-05-15T02:57:36.836Z,13.30
2018-05-15T03:00:39.455Z,13.30
2018-05-15T03:03:42.019Z,13.30
2018-05-15T03:06:44.621Z,13.30
2018-05-15T03:09:47.256Z,13.30
2018-05-15T03:12:50.869Z,13.30
2018-05-15T03:15:53.475Z,13.20
2018-05-15T03:18:56.239Z,13.20
2018-05-15T03:21:58.818Z,13.20
2018-05-15T03:25:01.437Z,13.20
2018-05-15T03:28:04.911Z,13.20
2018-05-15T03:31:07.697Z,13.20
2018-05-15T03:34:10.261Z,13.20
2018-05-15T03:37:12.844Z,13.20
2018-05-15T03:40:16.227Z,13.10
2018-05-15T03:43:18.824Z,13.10
2018-05-15T03:46:22.172Z,13.10
2018-05-15T03:49:24.803Z,13.10
2018-05-15T03:52:28.222Z,13.10
2018-05-15T03:55:30.862Z,13.10
2018-05-15T03:58:33.455Z,13.10
2018-05-15T04:01:47.737Z,13.20
2018-05-15T04:05:02.404Z,13.10
2018-05-15T04:08:11.995Z,13.20
2018-05-15T04:11:15.602Z,13.10
2018-05-15T04:14:18.168Z,13.10
2018-05-15T04:17:21.024Z,13.10
2018-05-15T04:20:23.676Z,13.00
2018-05-15T04:23:27.306Z,13.00
2018-05-15T04:26:30.812Z,13.10
2018-05-15T04:29:34.159Z,13.10
2018-05-15T04:32:36.741Z,13.00
2018-05-15T04:35:39.591Z,13.10
2018-05-15T04:38:42.174Z,13.00
2018-05-15T04:41:44.746Z,13.00
2018-05-15T04:44:47.327Z,13.10
2018-05-15T04:47:49.938Z,13.20
2018-05-15T04:50:52.553Z,13.10
2018-05-15T04:53:55.155Z,13.10
2018-05-15T04:56:58.522Z,13.10
2018-05-15T05:00:01.108Z,13.10
2018-05-15T05:03:03.722Z,13.10
2018-05-15T05:06:06.327Z,13.10
2018-05-15T05:09:08.982Z,13.10
2018-05-15T05:12:12.342Z,13.10
2018-05-15T05:15:14.979Z,13.10
2018-05-15T05:18:18.331Z,13.10
2018-05-15T05:21:20.941Z,13.10
2018-05-15T05:24:23.525Z,13.10
2018-05-15T05:27:26.135Z,13.20
2018-05-15T05:30:28.707Z,13.20
2018-05-15T05:33:31.376Z,13.10
2018-05-15T05:36:34.090Z,13.10
2018-05-15T05:39:36.678Z,13.10
2018-05-15T05:42:39.350Z,13.10
2018-05-15T05:45:41.959Z,13.10
2018-05-15T05:48:44.556Z,13.10
2018-05-15T05:51:47.145Z,13.20
2018-05-15T05:54:49.786Z,13.20
2018-05-15T05:57:52.413Z,13.20
2018-05-15T06:00:55.019Z,13.10
2018-05-15T06:03:58.442Z,13.20
2018-05-15T06:07:01.072Z,13.10
2018-05-15T06:10:03.727Z,13.20
2018-05-15T06:13:06.495Z,13.20
2018-05-15T06:16:09.097Z,13.20
2018-05-15T06:19:11.779Z,13.10
2018-05-15T06:22:14.340Z,13.10
2018-05-15T06:25:16.986Z,13.20
2018-05-15T06:28:21.438Z,13.40
2018-05-15T06:31:24.207Z,13.40
2018-05-15T06:34:26.837Z,13.50
2018-05-15T06:37:29.472Z,13.60
2018-05-15T06:40:32.035Z,13.80
2018-05-15T06:43:34.631Z,14.00
2018-05-15T06:46:37.649Z,14.10
2018-05-15T06:49:41.781Z,14.20
2018-05-15T06:52:44.371Z,14.20
2018-05-15T06:55:47.091Z,14.20
2018-05-15T06:58:49.745Z,14.20
2018-05-15T07:01:52.642Z,14.10
2018-05-15T07:04:55.931Z,14.20
2018-05-15T07:07:58.506Z,14.20
2018-05-15T07:11:01.384Z,14.30
2018-05-15T07:14:04.023Z,14.40
2018-05-15T07:17:08.099Z,14.40
2018-05-15T07:20:10.784Z,14.40
2018-05-15T07:23:13.380Z,14.50
2018-05-15T07:26:15.978Z,14.50
2018-05-15T07:29:18.728Z,14.60
2018-05-15T07:32:21.362Z,14.60
2018-05-15T07:35:24.012Z,14.60
2018-05-15T07:38:26.596Z,14.60
2018-05-15T07:41:29.194Z,14.60
2018-05-15T07:44:31.828Z,14.60
2018-05-15T07:47:34.611Z,14.50
2018-05-15T07:50:37.210Z,14.50
2018-05-15T07:53:39.817Z,14.50
2018-05-15T07:56:43.229Z,14.50
2018-05-15T07:59:45.863Z,14.50
2018-05-15T08:02:48.447Z,14.50
2018-05-15T08:05:51.050Z,14.60
2018-05-15T08:08:53.656Z,14.60
2018-05-15T08:11:56.464Z,14.60
2018-05-15T08:14:59.057Z,14.60
2018-05-15T08:18:02.417Z,14.60
2018-05-15T08:21:05.023Z,14.60
2018-05-15T08:24:07.602Z,14.70
2018-05-15T08:27:10.226Z,14.60
2018-05-15T08:30:15.251Z,14.60
2018-05-15T08:33:17.914Z,14.60
2018-05-15T08:36:20.795Z,14.60
2018-05-15T08:39:23.515Z,14.60
2018-05-15T08:42:26.158Z,14.60
2018-05-15T08:45:29.467Z,14.50
2018-05-15T08:48:32.755Z,14.60
2018-05-15T08:51:35.430Z,14.60
2018-05-15T08:54:38.014Z,14.60
2018-05-15T08:57:40.637Z,14.60
2018-05-15T09:00:43.214Z,14.60
2018-05-15T09:03:46.593Z,14.60
2018-05-15T09:06:49.177Z,14.50
2018-05-15T09:09:51.824Z,14.60
2018-05-15T09:12:54.405Z,14.50
2018-05-15T09:15:57.017Z,14.60
2018-05-15T09:18:59.633Z,14.60
2018-05-15T09:22:02.228Z,14.60
2018-05-15T09:25:04.788Z,14.50
2018-05-15T09:28:07.393Z,14.50
2018-05-15T09:31:09.971Z,14.60
2018-05-15T09:34:12.596Z,14.60
2018-05-15T09:37:15.226Z,14.70
2018-05-15T09:40:17.844Z,14.70
2018-05-15T09:46:56.543Z,14.50
2018-05-15T09:49:59.186Z,14.60
2018-05-15T09:53:01.777Z,14.50
2018-05-15T09:56:04.443Z,14.50
2018-05-15T09:59:07.022Z,14.50
2018-05-15T10:02:09.608Z,14.50
2018-05-15T10:05:12.373Z,14.60
2018-05-15T10:08:15.298Z,14.60
2018-05-15T10:11:17.846Z,14.60
2018-05-15T10:14:20.443Z,14.60
2018-05-15T10:17:22.997Z,14.60
2018-05-15T10:20:25.587Z,14.60
2018-05-15T10:23:28.174Z,14.50
2018-05-15T10:26:30.770Z,14.60
2018-05-15T10:29:33.354Z,14.60
2018-05-15T10:32:36.005Z,14.50
2018-05-15T10:35:38.628Z,14.40
2018-05-15T10:38:41.182Z,14.20
2018-05-15T10:41:43.768Z,14.30
2018-05-15T10:44:46.355Z,14.30
2018-05-15T10:47:48.930Z,14.40
2018-05-15T10:50:51.708Z,14.40
2018-05-15T10:53:54.224Z,14.50
2018-05-15T10:56:56.805Z,14.40
2018-05-15T10:59:59.433Z,14.50
2018-05-15T11:03:02.118Z,14.50
2018-05-15T11:06:04.841Z,14.50
2018-05-15T11:09:07.678Z,14.50
2018-05-15T11:12:11.036Z,14.40
2018-05-15T11:15:13.631Z,14.40
2018-05-15T11:18:28.135Z,14.50
2018-05-15T11:21:42.483Z,14.60
2018-05-15T11:24:51.911Z,14.60
2018-05-15T11:27:54.580Z,14.70
2018-05-15T11:30:57.131Z,14.60
2018-05-15T11:33:59.750Z,14.50
2018-05-15T11:37:02.554Z,14.40
2018-05-15T11:40:05.963Z,14.30
2018-05-15T11:43:08.747Z,14.30
2018-05-15T11:46:12.069Z,14.20
2018-05-15T11:49:15.413Z,14.20
2018-05-15T11:52:18.058Z,14.30
2018-05-15T11:55:20.069Z,14.30
2018-05-15T11:58:22.747Z,14.40
2018-05-15T12:01:25.368Z,14.40
2018-05-15T12:04:27.977Z,14.50
2018-05-15T12:07:30.573Z,14.60
2018-05-15T12:10:33.305Z,14.60
2018-05-15T12:13:36.109Z,14.70
2018-05-15T12:16:38.763Z,14.80
2018-05-15T12:19:41.379Z,14.90
2018-05-15T12:22:44.155Z,15.00
2018-05-15T12:25:46.732Z,15.00
2018-05-15T12:28:50.141Z,15.10
2018-05-15T12:31:52.691Z,15.00
2018-05-15T12:34:55.444Z,15.00
2018-05-15T12:37:58.031Z,14.90
2018-05-15T12:41:00.660Z,14.90
2018-05-15T12:44:03.287Z,14.90
2018-05-15T12:47:05.939Z,14.90
2018-05-15T12:50:08.506Z,14.90
2018-05-15T12:53:11.114Z,15.00
2018-05-15T12:56:13.767Z,15.10
2018-05-15T12:59:17.147Z,15.20
2018-05-15T13:02:19.739Z,15.20
2018-05-15T13:05:23.467Z,15.40
2018-05-15T13:08:26.812Z,15.40
2018-05-15T13:11:29.490Z,15.40
2018-05-15T13:14:32.071Z,15.40
2018-05-15T13:17:34.649Z,15.50
2018-05-15T13:20:37.282Z,15.60
2018-05-15T13:23:41.483Z,15.80
2018-05-15T13:26:44.126Z,15.80
2018-05-15T13:29:46.714Z,15.90
2018-05-15T13:32:49.314Z,16.00
2018-05-15T13:35:51.929Z,15.90
2018-05-15T13:38:55.325Z,16.10
2018-05-15T13:41:59.597Z,16.30
2018-05-15T13:45:02.182Z,16.20
2018-05-15T13:48:04.821Z,16.50
2018-05-15T13:51:07.484Z,16.60
2018-05-15T13:54:10.736Z,16.80
2018-05-15T13:57:14.349Z,17.00
2018-05-15T14:00:16.924Z,17.10
2018-05-15T14:03:19.514Z,17.40
2018-05-15T14:06:22.116Z,17.50
2018-05-15T14:09:25.448Z,17.60
2018-05-15T14:12:28.117Z,17.70
2018-05-15T14:15:30.878Z,17.80
2018-05-15T14:18:33.439Z,17.70
2018-05-15T14:21:36.044Z,17.70
2018-05-15T14:24:38.684Z,17.80
2018-05-15T14:27:41.246Z,17.70
2018-05-15T14:30:44.587Z,17.50
2018-05-15T14:33:47.311Z,17.50
2018-05-15T14:36:49.912Z,17.50
2018-05-15T14:39:53.331Z,17.40
2018-05-15T14:43:07.868Z,17.40
2018-05-15T14:46:10.505Z,17.40
2018-05-15T14:49:13.104Z,17.40
2018-05-15T14:52:15.719Z,17.40
2018-05-15T14:55:19.120Z,17.60
2018-05-15T14:58:22.522Z,17.60
2018-05-15T15:01:25.280Z,17.60
2018-05-15T15:04:28.002Z,17.70
2018-05-15T15:07:31.353Z,17.80
2018-05-15T15:10:33.968Z,17.80
2018-05-15T15:13:36.559Z,17.80
2018-05-15T15:16:39.188Z,17.80
2018-05-15T15:19:41.759Z,17.80
2018-05-15T15:22:44.343Z,17.90
2018-05-15T15:25:46.983Z,17.80
2018-05-15T15:28:50.495Z,17.70
2018-05-15T15:31:53.848Z,17.70
2018-05-15T15:34:56.435Z,17.70
2018-05-15T15:37:59.036Z,17.70
2018-05-15T15:41:01.664Z,17.60
2018-05-15T15:44:04.295Z,17.60
2018-05-15T15:47:06.886Z,17.40
2018-05-15T15:50:09.460Z,17.30
2018-05-15T15:53:12.091Z,17.30
2018-05-15T15:56:14.685Z,17.30
2018-05-15T15:59:17.502Z,17.30
2018-05-15T16:02:20.064Z,17.10
2018-05-15T16:05:22.654Z,16.70
2018-05-15T16:08:25.308Z,16.30
2018-05-15T16:11:27.912Z,16.20
2018-05-15T16:14:30.628Z,16.20
2018-05-15T16:17:33.262Z,16.10
2018-05-15T16:20:35.876Z,16.10
2018-05-15T16:23:38.578Z,16.20
2018-05-15T16:26:41.167Z,16.10
2018-05-15T16:29:43.753Z,16.00
2018-05-15T16:32:47.156Z,16.00
2018-05-15T16:35:49.757Z,16.00
2018-05-15T16:38:52.366Z,16.00
2018-05-15T16:41:54.935Z,16.00
2018-05-15T16:44:57.540Z,16.00
2018-05-15T16:48:00.176Z,16.00
2018-05-15T16:51:02.874Z,15.90
2018-05-15T16:54:05.521Z,15.80
2018-05-15T16:57:08.340Z,15.80
2018-05-15T17:00:10.931Z,15.80
2018-05-15T17:03:13.523Z,15.80
2018-05-15T17:06:16.170Z,15.70
2018-05-15T17:09:20.373Z,15.70
2018-05-15T17:12:23.002Z,15.60
2018-05-15T17:15:26.486Z,15.60
2018-05-15T17:18:29.123Z,15.50
2018-05-15T17:21:31.846Z,15.50
2018-05-15T17:24:35.264Z,15.30
2018-05-15T17:27:38.030Z,15.30
2018-05-15T17:30:41.432Z,15.30
2018-05-15T17:33:44.042Z,15.20
2018-05-15T17:36:46.699Z,15.10
2018-05-15T17:39:50.047Z,15.00
2018-05-15T17:42:52.796Z,15.00
2018-05-15T17:45:55.404Z,15.00
2018-05-15T17:48:57.996Z,14.90
2018-05-15T17:52:00.621Z,14.90
2018-05-15T17:55:03.243Z,14.80
2018-05-15T17:58:05.931Z,14.90
2018-05-15T18:01:08.539Z,14.80
2018-05-15T18:04:11.277Z,14.80
2018-05-15T18:07:13.905Z,14.80
2018-05-15T18:10:16.521Z,14.80
2018-05-15T18:13:20.120Z,14.80
2018-05-15T18:16:22.821Z,14.80
2018-05-15T18:19:25.464Z,14.70
2018-05-15T18:22:28.108Z,14.60
2018-05-15T18:25:30.785Z,14.60
2018-05-15T18:28:34.231Z,14.40
2018-05-15T18:31:36.881Z,14.30
2018-05-15T18:34:39.721Z,14.20
2018-05-15T18:37:42.358Z,14.20
2018-05-15T18:40:45.152Z,14.20
2018-05-15T18:43:47.783Z,14.10
2018-05-15T18:46:50.404Z,14.10
2018-05-15T18:49:53.296Z,14.10
2018-05-15T18:52:56.237Z,14.00
2018-05-15T18:55:58.822Z,14.00
2018-05-15T18:59:02.205Z,14.00
2018-05-15T19:02:05.033Z,14.00
2018-05-15T19:05:07.668Z,14.00
2018-05-15T19:08:10.555Z,14.00
2018-05-15T19:11:13.177Z,14.00
2018-05-15T19:14:17.456Z,14.00
2018-05-15T19:17:20.135Z,13.90
2018-05-15T19:20:22.819Z,13.90
2018-05-15T19:23:25.770Z,13.80
2018-05-15T19:26:28.455Z,13.70
2018-05-15T19:29:31.762Z,13.70
2018-05-15T19:32:39.391Z,13.70
2018-05-15T19:35:42.023Z,13.60
2018-05-15T19:38:44.638Z,13.60
2018-05-15T19:41:47.815Z,13.60
2018-05-15T19:44:50.591Z,13.50
2018-05-15T19:47:54.015Z,13.50
2018-05-15T19:50:56.747Z,13.40
2018-05-15T19:53:59.343Z,13.40
2018-05-15T19:57:02.259Z,13.40
2018-05-15T20:00:04.906Z,13.40
2018-05-15T20:03:07.752Z,13.30
2018-05-15T20:06:11.039Z,13.30
2018-05-15T20:09:13.998Z,13.20
2018-05-15T20:12:16.797Z,13.20
2018-05-15T20:15:20.852Z,13.20
2018-05-15T20:18:24.069Z,13.20
2018-05-15T20:21:26.662Z,13.20
2018-05-15T20:24:30.259Z,13.20
2018-05-15T20:27:33.091Z,13.10
2018-05-15T20:30:35.896Z,13.10
2018-05-15T20:33:38.765Z,13.10
2018-05-15T20:36:41.375Z,13.00
2018-05-15T20:39:44.046Z,13.00
2018-05-15T20:42:46.834Z,13.00
2018-05-15T20:45:50.767Z,13.00
2018-05-15T20:48:53.382Z,12.90
2018-05-15T20:51:56.178Z,12.90
2018-05-15T20:54:59.601Z,12.80
2018-05-15T20:58:02.206Z,12.80
2018-05-15T21:01:04.897Z,12.80
2018-05-15T21:04:07.588Z,12.70
2018-05-15T21:07:10.224Z,12.70
2018-05-15T21:10:13.630Z,12.70
2018-05-15T21:13:16.291Z,12.70
2018-05-15T21:16:19.988Z,12.60
2018-05-15T21:19:24.144Z,12.60
2018-05-15T21:22:26.872Z,12.60
2018-05-15T21:25:29.797Z,12.60
2018-05-15T21:28:33.437Z,12.50
2018-05-15T21:31:36.313Z,12.50
2018-05-15T21:34:39.003Z,12.50
2018-05-15T21:37:41.694Z,12.50
2018-05-15T21:40:44.798Z,12.40
2018-05-15T21:43:47.588Z,12.40
2018-05-15T21:46:50.231Z,12.40
2018-05-15T21:49:53.853Z,12.40
2018-05-15T21:52:56.630Z,12.40
2018-05-15T21:56:00.547Z,12.40
2018-05-15T21:59:03.158Z,12.40
2018-05-15T22:02:05.807Z,12.40
2018-05-15T22:05:09.002Z,12.40
2018-05-15T22:08:12.388Z,12.30
2018-05-15T22:11:14.494Z,12.30
2018-05-15T22:14:29.793Z,12.30
2018-05-15T22:17:44.234Z,12.30
2018-05-15T22:20:58.730Z,12.30
2018-05-15T22:24:00.830Z,12.20
2018-05-15T22:27:04.181Z,12.20
2018-05-15T22:30:07.001Z,12.10
2018-05-15T22:33:09.611Z,12.10
2018-05-15T22:36:13.020Z,12.10
2018-05-15T22:39:15.622Z,12.10
2018-05-15T22:42:18.281Z,12.10
2018-05-15T22:45:21.851Z,12.00
2018-05-15T22:48:24.997Z,12.00
2018-05-15T22:51:28.425Z,12.00
2018-05-15T22:54:31.189Z,12.00
2018-05-15T22:57:33.910Z,12.00
2018-05-15T23:00:36.527Z,12.00
2018-05-15T23:03:39.141Z,11.90
2018-05-15T23:06:41.858Z,11.90
2018-05-15T23:09:44.481Z,12.00
2018-05-15T23:12:47.822Z,11.90
2018-05-15T23:15:50.491Z,11.90
2018-05-15T23:18:54.831Z,11.90
2018-05-15T23:21:57.461Z,11.90
2018-05-15T23:25:00.980Z,11.90
2018-05-15T23:28:03.594Z,11.90
2018-05-15T23:31:06.226Z,11.90
2018-05-15T23:34:09.756Z,11.90
2018-05-15T23:37:12.350Z,11.90
2018-05-15T23:40:14.967Z,11.90
2018-05-15T23:43:17.541Z,11.90
2018-05-15T23:46:20.156Z,11.90
2018-05-15T23:49:23.555Z,11.90
2018-05-15T23:52:26.140Z,11.90
2018-05-15T23:55:29.524Z,12.00
2018-05-15T23:58:32.106Z,12.00
